createdAt,value
2022-12-27T00:01:18.677Z,2.90
2022-12-27T00:04:07.142Z,2.90
2022-12-27T00:06:57.520Z,2.91
2022-12-27T00:09:46.088Z,2.92
2022-12-27T00:12:34.637Z,2.93
2022-12-27T00:15:23.236Z,2.95
2022-12-27T00:18:11.774Z,2.98
2022-12-27T00:21:00.998Z,3.01
2022-12-27T00:23:50.360Z,3.01
2022-12-27T00:26:40.454Z,2.99
2022-12-27T00:29:28.760Z,3.00
2022-12-27T00:32:17.241Z,3.00
2022-12-27T00:35:06.462Z,3.00
2022-12-27T00:37:54.857Z,3.01
2022-12-27T00:40:43.315Z,3.02
2022-12-27T00:43:31.915Z,3.06
2022-12-27T00:46:20.733Z,3.08
2022-12-27T00:49:09.239Z,3.10
2022-12-27T00:51:57.671Z,3.13
2022-12-27T00:54:46.133Z,3.15
2022-12-27T00:57:34.581Z,3.15
2022-12-27T01:00:23.099Z,3.14
2022-12-27T01:03:11.569Z,3.14
2022-12-27T01:06:04.285Z,3.15
2022-12-27T01:08:52.806Z,3.16
2022-12-27T01:11:41.450Z,3.19
2022-12-27T01:14:29.919Z,3.22
2022-12-27T01:17:18.448Z,3.26
2022-12-27T01:20:08.290Z,3.29
2022-12-27T01:22:56.888Z,3.31
2022-12-27T01:25:45.288Z,3.32
2022-12-27T01:28:37.704Z,3.34
2022-12-27T01:31:31.217Z,3.35
2022-12-27T01:34:21.106Z,3.36
2022-12-27T01:37:10.894Z,3.36
2022-12-27T01:40:02.572Z,3.35
2022-12-27T01:42:55.091Z,3.34
2022-12-27T01:45:43.632Z,3.33
2022-12-27T01:48:31.837Z,3.31
2022-12-27T01:51:21.330Z,3.30
2022-12-27T01:54:10.075Z,3.28
2022-12-27T01:56:58.574Z,3.25
2022-12-27T01:59:47.215Z,3.23
2022-12-27T02:02:35.905Z,3.22
2022-12-27T02:05:25.692Z,3.22
2022-12-27T02:08:20.363Z,3.23
2022-12-27T02:11:09.526Z,3.27
2022-12-27T02:13:58.029Z,3.32
2022-12-27T02:16:47.743Z,3.38
2022-12-27T02:19:42.677Z,3.44
2022-12-27T02:23:03.546Z,3.53
2022-12-27T02:26:10.655Z,3.62
2022-12-27T02:29:05.314Z,3.70
2022-12-27T02:32:00.808Z,3.76
2022-12-27T02:34:54.134Z,3.81
2022-12-27T02:37:45.874Z,3.85
2022-12-27T02:40:52.825Z,3.88
2022-12-27T02:43:59.766Z,3.91
2022-12-27T02:47:11.864Z,3.94
2022-12-27T02:50:18.366Z,3.96
2022-12-27T02:53:14.923Z,3.98
2022-12-27T02:56:28.422Z,4.00
2022-12-27T02:59:25.799Z,4.00
2022-12-27T03:02:39.987Z,4.03
2022-12-27T03:05:36.278Z,4.05
2022-12-27T03:08:31.685Z,4.10
2022-12-27T03:11:40.220Z,4.17
2022-12-27T03:14:53.741Z,4.25
2022-12-27T03:17:45.534Z,4.33
2022-12-27T03:20:52.933Z,4.39
2022-12-27T03:24:01.758Z,4.46
2022-12-27T03:26:51.238Z,4.49
2022-12-27T03:29:58.364Z,4.51
2022-12-27T03:33:08.287Z,4.53
2022-12-27T03:36:16.567Z,4.54
2022-12-27T03:39:09.370Z,4.55
2022-12-27T03:42:18.753Z,4.56
2022-12-27T03:45:08.201Z,4.60
2022-12-27T03:48:02.835Z,4.67
2022-12-27T03:50:54.506Z,4.73
2022-12-27T03:53:46.022Z,4.77
2022-12-27T03:56:34.487Z,4.82
2022-12-27T03:59:23.442Z,4.85
2022-12-27T04:02:12.546Z,4.87
2022-12-27T04:05:01.080Z,4.88
2022-12-27T04:08:10.248Z,4.89
2022-12-27T04:11:16.973Z,4.89
2022-12-27T04:14:23.695Z,4.90
2022-12-27T04:17:30.537Z,4.88
2022-12-27T04:20:37.257Z,4.86
2022-12-27T04:23:44.183Z,4.83
2022-12-27T04:26:50.995Z,4.81
2022-12-27T04:29:57.702Z,4.80
2022-12-27T04:33:04.849Z,4.79
2022-12-27T04:35:53.302Z,4.78
2022-12-27T04:38:41.741Z,4.79
2022-12-27T04:41:48.776Z,4.78
2022-12-27T04:44:57.821Z,4.79
2022-12-27T04:48:04.698Z,4.81
2022-12-27T04:51:11.517Z,4.85
2022-12-27T04:54:18.546Z,4.89
2022-12-27T04:57:07.044Z,4.95
2022-12-27T05:00:13.795Z,5.01
2022-12-27T05:03:03.579Z,5.06
2022-12-27T05:05:52.683Z,5.10
2022-12-27T05:08:59.851Z,5.14
2022-12-27T05:12:06.700Z,5.17
2022-12-27T05:14:55.151Z,5.18
2022-12-27T05:17:43.712Z,5.19
2022-12-27T05:20:34.600Z,5.17
2022-12-27T05:23:41.005Z,5.15
2022-12-27T05:26:30.359Z,5.11
2022-12-27T05:29:18.863Z,5.08
2022-12-27T05:32:12.762Z,5.04
2022-12-27T05:35:01.870Z,4.99
2022-12-27T05:37:54.844Z,4.93
2022-12-27T05:40:43.694Z,4.89
2022-12-27T05:43:32.922Z,4.85
2022-12-27T05:46:21.769Z,4.81
2022-12-27T05:49:09.799Z,4.79
2022-12-27T05:51:58.236Z,4.78
2022-12-27T05:54:46.676Z,4.76
2022-12-27T05:57:35.259Z,4.76
2022-12-27T06:00:23.724Z,4.77
2022-12-27T06:03:12.191Z,4.76
2022-12-27T06:06:01.618Z,4.76
2022-12-27T06:08:50.035Z,4.76
2022-12-27T06:11:38.443Z,4.76
2022-12-27T06:14:26.864Z,4.76
2022-12-27T06:17:15.311Z,4.76
2022-12-27T06:20:03.978Z,4.76
2022-12-27T06:22:52.488Z,4.76
2022-12-27T06:25:40.830Z,4.82
2022-12-27T06:28:29.435Z,5.03
2022-12-27T06:31:18.492Z,5.26
2022-12-27T06:34:06.594Z,5.51
2022-12-27T06:36:55.048Z,5.72
2022-12-27T06:39:43.626Z,5.92
2022-12-27T06:42:32.030Z,6.11
2022-12-27T06:45:20.543Z,6.22
2022-12-27T06:48:08.987Z,6.27
2022-12-27T06:50:57.523Z,6.32
2022-12-27T06:53:45.907Z,6.38
2022-12-27T06:56:34.478Z,6.46
2022-12-27T06:59:23.114Z,6.57
2022-12-27T07:02:11.783Z,6.62
2022-12-27T07:05:00.729Z,6.67
2022-12-27T07:07:52.705Z,6.71
2022-12-27T07:10:41.133Z,6.72
2022-12-27T07:13:29.704Z,6.76
2022-12-27T07:16:20.756Z,6.80
2022-12-27T07:19:10.062Z,6.86
2022-12-27T07:21:58.469Z,6.91
2022-12-27T07:24:47.102Z,6.95
2022-12-27T07:27:36.258Z,7.00
2022-12-27T07:30:24.754Z,7.04
2022-12-27T07:33:13.168Z,7.07
2022-12-27T07:36:02.192Z,7.10
2022-12-27T07:38:50.930Z,7.13
2022-12-27T07:41:39.462Z,7.18
2022-12-27T07:44:28.486Z,7.23
2022-12-27T07:47:17.007Z,7.28
2022-12-27T07:50:06.249Z,7.32
2022-12-27T07:52:54.831Z,7.37
2022-12-27T07:55:46.548Z,7.41
2022-12-27T07:58:38.704Z,7.45
2022-12-27T08:01:29.120Z,7.48
2022-12-27T08:04:17.844Z,7.52
2022-12-27T08:07:08.089Z,7.55
2022-12-27T08:09:56.535Z,7.56
2022-12-27T08:12:45.050Z,7.60
2022-12-27T08:15:33.496Z,7.64
2022-12-27T08:18:21.950Z,7.69
2022-12-27T08:21:10.506Z,7.74
2022-12-27T08:23:58.996Z,7.77
2022-12-27T08:26:47.470Z,7.83
2022-12-27T08:29:36.152Z,7.91
2022-12-27T08:32:24.730Z,7.98
2022-12-27T08:35:50.276Z,8.05
2022-12-27T08:38:21.715Z,8.09
2022-12-27T08:41:10.066Z,8.16
2022-12-27T08:43:58.682Z,8.22
2022-12-27T08:46:47.195Z,8.28
2022-12-27T08:49:35.340Z,8.35
2022-12-27T08:52:23.755Z,8.41
2022-12-27T08:55:12.343Z,8.45
2022-12-27T08:58:01.860Z,8.50
2022-12-27T09:00:50.103Z,8.54
2022-12-27T09:03:38.633Z,8.58
2022-12-27T09:06:27.551Z,8.60
2022-12-27T09:09:16.064Z,8.63
2022-12-27T09:12:09.145Z,8.66
2022-12-27T09:14:59.063Z,8.70
2022-12-27T09:17:47.499Z,8.75
2022-12-27T09:20:37.340Z,8.79
2022-12-27T09:23:25.392Z,8.81
2022-12-27T09:26:14.734Z,8.86
2022-12-27T09:29:03.199Z,8.91
2022-12-27T09:31:51.672Z,8.95
2022-12-27T09:34:40.318Z,8.99
2022-12-27T09:37:28.689Z,9.05
2022-12-27T09:40:19.092Z,9.09
2022-12-27T09:43:19.450Z,9.15
2022-12-27T09:46:13.367Z,9.19
2022-12-27T09:49:01.767Z,9.22
2022-12-27T09:51:52.173Z,9.25
2022-12-27T09:54:45.074Z,9.27
2022-12-27T09:57:35.955Z,9.27
2022-12-27T10:00:31.003Z,9.28
2022-12-27T10:03:25.282Z,9.31
2022-12-27T10:06:21.230Z,9.35
2022-12-27T10:09:15.491Z,9.42
2022-12-27T10:12:10.812Z,9.48
2022-12-27T10:15:03.881Z,9.52
2022-12-27T10:17:58.664Z,9.57
2022-12-27T10:20:52.918Z,9.64
2022-12-27T10:23:43.934Z,9.71
2022-12-27T10:26:32.703Z,9.79
2022-12-27T10:29:22.795Z,9.87
2022-12-27T10:32:13.810Z,9.99
2022-12-27T10:35:02.563Z,10.12
2022-12-27T10:37:53.069Z,10.24
2022-12-27T10:40:49.104Z,10.37
2022-12-27T10:43:40.013Z,10.52
2022-12-27T10:46:32.992Z,10.61
2022-12-27T10:49:24.882Z,10.65
2022-12-27T10:52:17.035Z,10.70
2022-12-27T10:55:06.121Z,10.81
2022-12-27T10:57:54.500Z,10.94
2022-12-27T11:00:52.325Z,11.12
2022-12-27T11:03:40.778Z,11.13
2022-12-27T11:06:29.263Z,11.05
2022-12-27T11:09:25.402Z,10.99
2022-12-27T11:12:16.821Z,11.05
2022-12-27T11:15:06.855Z,11.15
2022-12-27T11:17:58.017Z,11.21
2022-12-27T11:20:48.475Z,11.25
2022-12-27T11:23:42.718Z,11.20
2022-12-27T11:26:34.076Z,11.14
2022-12-27T11:29:24.392Z,11.16
2022-12-27T11:32:12.761Z,11.30
2022-12-27T11:35:01.177Z,11.43
2022-12-27T11:37:50.581Z,11.46
2022-12-27T11:40:39.057Z,11.57
2022-12-27T11:43:30.374Z,11.68
2022-12-27T11:46:27.457Z,11.64
2022-12-27T11:49:20.004Z,11.56
2022-12-27T11:52:28.473Z,11.55
2022-12-27T11:55:24.158Z,11.61
2022-12-27T11:58:29.483Z,11.70
2022-12-27T12:01:40.905Z,11.83
2022-12-27T12:04:55.817Z,11.91
2022-12-27T12:07:57.453Z,12.09
2022-12-27T12:10:50.337Z,12.16
2022-12-27T12:13:53.939Z,12.02
2022-12-27T12:16:50.755Z,11.87
2022-12-27T12:19:52.737Z,11.81
2022-12-27T12:22:49.121Z,11.86
2022-12-27T12:25:57.506Z,11.89
2022-12-27T12:28:58.683Z,12.17
2022-12-27T12:31:55.801Z,12.72
2022-12-27T12:34:55.209Z,13.07
2022-12-27T12:38:01.485Z,13.11
2022-12-27T12:41:07.272Z,13.13
2022-12-27T12:44:25.216Z,13.04
2022-12-27T12:47:19.085Z,12.82
2022-12-27T12:50:16.129Z,12.52
2022-12-27T12:53:17.643Z,12.27
2022-12-27T12:56:14.090Z,12.08
2022-12-27T12:59:09.770Z,11.97
2022-12-27T13:02:05.928Z,11.88
2022-12-27T13:05:11.081Z,11.78
2022-12-27T13:08:06.496Z,11.71
2022-12-27T13:11:04.576Z,11.64
2022-12-27T13:14:01.986Z,11.53
2022-12-27T13:16:56.009Z,11.45
2022-12-27T13:19:50.091Z,11.38
2022-12-27T13:23:00.883Z,11.31
2022-12-27T13:25:53.898Z,11.26
2022-12-27T13:28:48.169Z,11.22
2022-12-27T13:31:41.429Z,11.17
2022-12-27T13:34:34.952Z,11.14
2022-12-27T13:37:31.188Z,11.15
2022-12-27T13:40:42.043Z,11.17
2022-12-27T13:44:00.040Z,11.20
2022-12-27T13:46:57.319Z,11.23
2022-12-27T13:49:53.711Z,11.26
2022-12-27T13:53:01.890Z,11.29
2022-12-27T13:55:55.719Z,11.31
2022-12-27T13:58:51.385Z,11.33
2022-12-27T14:01:54.751Z,11.33
2022-12-27T14:05:03.222Z,11.32
2022-12-27T14:07:56.490Z,11.33
2022-12-27T14:10:46.500Z,11.35
2022-12-27T14:13:36.550Z,11.37
2022-12-27T14:16:34.517Z,11.36
2022-12-27T14:19:39.505Z,11.34
2022-12-27T14:22:40.546Z,11.32
2022-12-27T14:25:48.518Z,11.33
2022-12-27T14:28:59.951Z,11.31
2022-12-27T14:32:04.803Z,11.24
2022-12-27T14:35:23.601Z,11.05
2022-12-27T14:38:32.766Z,10.87
2022-12-27T14:41:53.149Z,10.68
2022-12-27T14:44:59.763Z,10.48
2022-12-27T14:48:08.254Z,10.24
2022-12-27T14:51:58.909Z,10.08
2022-12-27T14:54:46.192Z,9.94
2022-12-27T14:57:37.577Z,9.80
2022-12-27T15:00:28.239Z,9.71
2022-12-27T15:03:21.496Z,9.62
2022-12-27T15:06:14.794Z,9.53
2022-12-27T15:09:09.246Z,9.46
2022-12-27T15:12:04.834Z,9.38
2022-12-27T15:15:02.850Z,9.31
2022-12-27T15:18:08.485Z,9.27
2022-12-27T15:21:06.691Z,9.24
2022-12-27T15:24:00.837Z,9.21
2022-12-27T15:26:52.628Z,9.18
2022-12-27T15:29:51.058Z,9.14
2022-12-27T15:32:47.048Z,9.08
2022-12-27T15:35:52.206Z,9.01
2022-12-27T15:38:42.260Z,8.94
2022-12-27T15:41:36.996Z,8.90
2022-12-27T15:44:36.010Z,8.86
2022-12-27T15:47:37.042Z,8.83
2022-12-27T15:50:39.018Z,8.81
2022-12-27T15:53:34.102Z,8.80
2022-12-27T15:56:27.697Z,8.79
2022-12-27T15:59:35.127Z,8.78
2022-12-27T16:02:29.458Z,8.78
2022-12-27T16:05:32.028Z,8.75
2022-12-27T16:08:34.331Z,8.71
2022-12-27T16:11:47.457Z,8.67
2022-12-27T16:14:37.212Z,8.63
2022-12-27T16:17:31.991Z,8.59
2022-12-27T16:20:21.555Z,8.56
2022-12-27T16:23:11.544Z,8.54
2022-12-27T16:26:04.270Z,8.50
2022-12-27T16:28:54.095Z,8.44
2022-12-27T16:31:45.977Z,8.36
2022-12-27T16:34:34.361Z,8.28
2022-12-27T16:37:28.656Z,8.21
2022-12-27T16:40:37.385Z,8.16
2022-12-27T16:43:36.583Z,8.12
2022-12-27T16:46:42.305Z,8.08
2022-12-27T16:49:35.064Z,8.06
2022-12-27T16:52:40.324Z,8.03
2022-12-27T16:55:44.934Z,7.99
2022-12-27T16:58:35.076Z,7.97
2022-12-27T17:01:43.652Z,7.94
2022-12-27T17:04:50.308Z,7.91
2022-12-27T17:07:49.180Z,7.87
2022-12-27T17:10:45.323Z,7.83
2022-12-27T17:13:40.492Z,7.79
2022-12-27T17:16:32.135Z,7.74
2022-12-27T17:19:27.389Z,7.69
2022-12-27T17:22:16.898Z,7.64
2022-12-27T17:25:05.661Z,7.61
2022-12-27T17:27:59.005Z,7.59
2022-12-27T17:30:52.405Z,7.61
2022-12-27T17:33:48.541Z,7.64
2022-12-27T17:36:42.240Z,7.68
2022-12-27T17:39:43.842Z,7.71
2022-12-27T17:42:53.993Z,7.73
2022-12-27T17:45:47.350Z,7.76
2022-12-27T17:48:36.372Z,7.77
2022-12-27T17:51:26.823Z,7.78
2022-12-27T17:54:40.046Z,7.78
2022-12-27T17:57:46.802Z,7.77
2022-12-27T18:00:36.690Z,7.73
2022-12-27T18:03:30.360Z,7.68
2022-12-27T18:06:19.635Z,7.63
2022-12-27T18:09:12.461Z,7.59
2022-12-27T18:12:01.800Z,7.55
2022-12-27T18:14:54.259Z,7.53
2022-12-27T18:17:45.446Z,7.52
2022-12-27T18:20:35.231Z,7.53
2022-12-27T18:23:24.130Z,7.53
2022-12-27T18:26:13.944Z,7.52
2022-12-27T18:29:03.394Z,7.53
2022-12-27T18:31:53.342Z,7.52
2022-12-27T18:34:44.139Z,7.51
2022-12-27T18:37:35.800Z,7.48
2022-12-27T18:40:25.231Z,7.45
2022-12-27T18:43:15.918Z,7.44
2022-12-27T18:46:04.764Z,7.42
2022-12-27T18:48:53.523Z,7.39
2022-12-27T18:51:42.158Z,7.38
2022-12-27T18:54:35.368Z,7.36
2022-12-27T18:57:32.183Z,7.34
2022-12-27T19:00:21.756Z,7.33
2022-12-27T19:03:17.143Z,7.31
2022-12-27T19:06:08.035Z,7.31
2022-12-27T19:08:56.070Z,7.30
2022-12-27T19:11:49.639Z,7.27
2022-12-27T19:14:44.040Z,7.24
2022-12-27T19:17:32.564Z,7.24
2022-12-27T19:20:22.651Z,7.23
2022-12-27T19:23:24.659Z,7.22
2022-12-27T19:26:24.462Z,7.21
2022-12-27T19:29:15.642Z,7.19
2022-12-27T19:32:05.057Z,7.19
2022-12-27T19:34:56.037Z,7.18
2022-12-27T19:37:44.358Z,7.16
2022-12-27T19:40:32.857Z,7.16
2022-12-27T19:43:21.838Z,7.15
2022-12-27T19:46:11.199Z,7.14
2022-12-27T19:52:11.620Z,7.10
2022-12-27T19:55:02.226Z,7.10
2022-12-27T19:57:50.404Z,7.09
2022-12-27T20:00:38.907Z,7.06
2022-12-27T20:03:27.414Z,7.05
2022-12-27T20:06:22.795Z,7.02
2022-12-27T20:09:14.508Z,6.99
2022-12-27T20:12:02.893Z,6.97
2022-12-27T20:14:51.543Z,6.94
2022-12-27T20:17:44.782Z,6.92
2022-12-27T20:20:33.481Z,6.90
2022-12-27T20:23:21.866Z,6.91
2022-12-27T20:26:10.705Z,6.90
2022-12-27T20:28:59.385Z,6.88
2022-12-27T20:31:49.669Z,6.86
2022-12-27T20:34:38.163Z,6.84
2022-12-27T20:37:26.636Z,6.81
2022-12-27T20:40:15.096Z,6.79
2022-12-27T20:43:03.613Z,6.76
2022-12-27T20:45:52.125Z,6.72
2022-12-27T20:48:41.570Z,6.68
2022-12-27T20:51:31.220Z,6.65
2022-12-27T20:54:19.567Z,6.62
2022-12-27T20:57:08.039Z,6.60
2022-12-27T20:59:56.478Z,6.59
2022-12-27T21:02:45.591Z,6.58
2022-12-27T21:05:35.769Z,6.57
2022-12-27T21:08:24.342Z,6.56
2022-12-27T21:11:13.769Z,6.57
2022-12-27T21:14:03.531Z,6.58
2022-12-27T21:16:51.993Z,6.59
2022-12-27T21:19:40.380Z,6.58
2022-12-27T21:22:28.749Z,6.58
2022-12-27T21:25:17.229Z,6.58
2022-12-27T21:28:05.770Z,6.59
2022-12-27T21:30:56.239Z,6.60
2022-12-27T21:33:44.656Z,6.60
2022-12-27T21:36:33.712Z,6.61
2022-12-27T21:39:21.874Z,6.62
2022-12-27T21:42:11.831Z,6.62
2022-12-27T21:45:00.081Z,6.62
2022-12-27T21:47:48.484Z,6.63
2022-12-27T21:50:37.535Z,6.66
2022-12-27T21:53:26.086Z,6.69
2022-12-27T21:56:15.623Z,6.72
2022-12-27T21:59:10.188Z,6.75
2022-12-27T22:01:58.756Z,6.78
2022-12-27T22:04:47.312Z,6.81
2022-12-27T22:07:35.768Z,6.85
2022-12-27T22:10:24.364Z,6.90
2022-12-27T22:13:12.962Z,6.94
2022-12-27T22:16:02.209Z,6.98
2022-12-27T22:18:50.776Z,7.04
2022-12-27T22:21:40.278Z,7.08
2022-12-27T22:24:28.877Z,7.11
2022-12-27T22:27:17.293Z,7.11
2022-12-27T22:30:06.898Z,7.11
2022-12-27T22:32:55.349Z,7.10
2022-12-27T22:35:44.257Z,7.08
2022-12-27T22:38:33.054Z,7.05
2022-12-27T22:41:24.157Z,7.03
2022-12-27T22:44:13.639Z,7.00
2022-12-27T22:50:11.932Z,6.95
2022-12-27T22:53:00.403Z,6.92
2022-12-27T22:55:48.830Z,6.90
2022-12-27T22:58:37.358Z,6.88
2022-12-27T23:01:27.662Z,6.86
2022-12-27T23:04:15.852Z,6.83
2022-12-27T23:07:04.602Z,6.80
2022-12-27T23:09:53.076Z,6.78
2022-12-27T23:12:41.539Z,6.73
2022-12-27T23:15:29.988Z,6.69
2022-12-27T23:18:18.549Z,6.65
2022-12-27T23:21:20.991Z,6.61
2022-12-27T23:24:12.352Z,6.58
2022-12-27T23:27:00.950Z,6.56
2022-12-27T23:29:49.890Z,6.55
2022-12-27T23:32:38.299Z,6.55
2022-12-27T23:35:26.919Z,6.55
2022-12-27T23:38:15.654Z,6.55
2022-12-27T23:41:05.041Z,6.55
2022-12-27T23:43:55.439Z,6.55
2022-12-27T23:46:44.686Z,6.54
2022-12-27T23:49:33.228Z,6.52
2022-12-27T23:52:21.672Z,6.49
2022-12-27T23:55:10.563Z,6.47
2022-12-27T23:57:58.941Z,6.45
